• Join FlightAware (Why Join?)
  • Login
  • US Flag 
06:47PM EDT


 

Airport Tracker/Info


-or-


 

Live Flight TrackerFlight Track Log ✈ JZA8474 ✈ 14-May-2013 ✈ CYCG - CYYC

Flight Track Log - Related Links

Times and Time Zones

All times are in EDT time to prevent confusion due to time zone crossing. See the JZA8474 flight status page for this flight to view local times or setup timezone preferences in your user account.

Time Position Orientation Groundspeed Altitude Reporting Facility
EDT Latitude Longitude Course Direction KTS MPH feet Rate Location/Type
03:09PM 50.4500 -115.6333 50° Northeast 300 345 22,800  Level Vancouver Center
03:10PM 50.4833 -115.6000 32° Northeast 310 357 21,700 -1,140 Descending Edmonton Center
03:11PM 50.5500 -115.4667 52° Northeast 330 380 20,600 -1,140 Descending Edmonton Center
03:12PM 50.6167 -115.3833 38° Northeast 320 368 19,500 -1,140 Descending Edmonton Center
03:13PM 50.6667 -115.2833 52° Northeast 310 357 18,400 -1,080 Descending Edmonton Center
03:14PM 50.7333 -115.2000 38° Northeast 300 345 17,400 -1,020 Descending Edmonton Center
03:15PM 50.6752 -115.2082 50° Northeast  Level FlightAware Approximate
03:15PM 50.8000 -115.0333 58° Northeast 290 334 16,400  Level Vancouver Center
03:16PM 50.8333 -114.9333 62° Northeast 280 322 15,500 -960 Descending Vancouver Center
03:17PM 50.8667 -114.8667 52° Northeast 290 334 14,600 -900 Descending Edmonton Center
03:18PM 50.8833 -114.7500 77° East 280 322 13,800 -900 Descending Edmonton Center
03:19PM 50.9167 -114.6500 62° Northeast 270 311 12,900 -1,200 Descending Edmonton Center
03:20PM 50.9333 -114.5500 75° East 270 311 11,500 -1,380 Descending Edmonton Center
03:21PM 50.9667 -114.4167 68° East 270 311 10,200 -1,200 Descending Edmonton Center
03:22PM 51.0000 -114.3167 62° Northeast 240 276 9,100 -1,080 Descending Edmonton Center
03:23PM 50.9500 -114.2500 140° Southeast 230 265 8,100 -780 Descending Edmonton Center
03:24PM 50.9000 -114.2333 168° South 230 265 7,600 -720 Descending Edmonton Center
03:25PM 50.8333 -114.1667 148° Southeast 230 265 6,700 -840 Descending Edmonton Center
03:26PM 50.8167 -114.0833 108° East 240 276 6,000 -360 Descending Edmonton Center
03:27PM 50.8667 -114.0333 32° Northeast 200 230 6,000  Level Edmonton Center
03:28PM 50.9167 -114.0500 348° North 210 242 6,000 -300 Level Edmonton Center
03:29PM 50.9667 -114.0333 12° North 190 219 5,400 -780 Descending Edmonton Center
03:30PM 51.0167 -114.0500 348° North 170 196 4,500 -900 Descending Edmonton Center